Time;durP1;ratioP1;P1;durP2;ratioP2;P2;SDS_P1;SDS_P2;PMS_P1;PMS_P2;Temp;Humidity;BMP_temperature;BMP_pressure;BME280_temperature;BME280_humidity;BME280_pressure;Samples;Min_cycle;Max_cycle;Signal;HPM_P1;HPM_P2
2023/04/14 00:01:58;;;;;;;6.13;2.88;;;;;6.20;97781.00;;;;5051623;28;20045;-59
2023/04/14 00:04:25;;;;;;;8.00;2.78;;;;;6.10;97785.00;;;;5050571;28;20485;-60
2023/04/14 00:06:55;;;;;;;8.68;3.28;;;;;6.10;97782.00;;;;5050492;28;20079;-59
2023/04/14 00:09:22;;;;;;;11.18;2.92;;;;;6.10;97788.00;;;;5051445;28;20528;-59
2023/04/14 00:11:49;;;;;;;8.43;2.85;;;;;6.20;97808.00;;;;5033757;28;20041;-59
2023/04/14 00:14:16;;;;;;;6.65;3.55;;;;;6.30;97802.00;;;;5051552;28;20055;-59
2023/04/14 00:16:42;;;;;;;6.68;3.30;;;;;6.30;97808.00;;;;5051763;28;20099;-59
2023/04/14 00:19:09;;;;;;;9.88;2.85;;;;;6.20;97803.00;;;;5051611;28;20449;-59
2023/04/14 00:21:36;;;;;;;8.93;3.67;;;;;6.10;97805.00;;;;5051489;28;20037;-59
2023/04/14 00:24:02;;;;;;;10.85;4.05;;;;;6.00;97804.00;;;;5051509;28;20044;-59
2023/04/14 00:26:30;;;;;;;5.22;3.10;;;;;5.90;97799.00;;;;5050184;28;20037;-57
2023/04/14 00:28:57;;;;;;;9.75;2.80;;;;;5.90;97801.00;;;;5050004;28;20052;-58
2023/04/14 00:31:24;;;;;;;6.32;2.72;;;;;5.80;97800.00;;;;5050197;28;20057;-58
2023/04/14 00:33:51;;;;;;;10.05;3.47;;;;;5.90;97789.00;;;;5049987;28;20041;-58
2023/04/14 00:36:17;;;;;;;10.10;3.42;;;;;6.00;97788.00;;;;5050180;28;20064;-58
2023/04/14 00:38:44;;;;;;;7.22;3.17;;;;;6.10;97788.00;;;;5051350;28;20049;-59
2023/04/14 00:41:10;;;;;;;6.88;3.00;;;;;6.10;97799.00;;;;5054935;28;20462;-58
2023/04/14 00:43:37;;;;;;;10.68;4.13;;;;;6.20;97797.00;;;;5053845;28;20100;-58
2023/04/14 00:46:03;;;;;;;6.43;2.88;;;;;6.00;97804.00;;;;5055105;28;20410;-59
2023/04/14 00:48:30;;;;;;;10.27;3.35;;;;;5.80;97800.00;;;;5054719;28;20032;-59
2023/04/14 00:50:57;;;;;;;6.50;2.72;;;;;5.60;97807.00;;;;5054803;28;20041;-58
2023/04/14 00:53:23;;;;;;;6.15;2.53;;;;;5.70;97801.00;;;;5053467;28;20041;-59
2023/04/14 00:55:50;;;;;;;8.93;3.30;;;;;5.80;97796.00;;;;5053519;28;20063;-59
2023/04/14 00:58:17;;;;;;;6.57;2.92;;;;;6.00;97787.00;;;;5054810;28;20048;-59
2023/04/14 01:00:45;;;;;;;14.07;3.85;;;;;6.00;97783.00;;;;5053338;28;20095;-59
2023/04/14 01:03:12;;;;;;;7.35;3.13;;;;;5.90;97779.00;;;;5054620;28;20457;-59
2023/04/14 01:05:39;;;;;;;6.57;3.08;;;;;5.90;97788.00;;;;5054553;28;20184;-59
2023/04/14 01:08:05;;;;;;;4.70;2.85;;;;;5.80;97791.00;;;;5053222;28;20056;-58
2023/04/14 01:10:39;;;;;;;7.93;3.85;;;;;5.90;97794.00;;;;5053223;28;20060;-59
2023/04/14 01:13:40;;;;;;;6.60;3.20;;;;;5.70;97791.00;;;;5054513;28;20045;-59
2023/04/14 01:16:15;;;;;;;8.05;3.15;;;;;5.60;97797.00;;;;5053165;28;20053;-59
2023/04/14 01:18:49;;;;;;;5.72;2.90;;;;;5.50;97791.00;;;;5052956;28;20071;-59
2023/04/14 01:21:27;;;;;;;7.93;3.65;;;;;5.50;97800.00;;;;5036504;28;20418;-59
2023/04/14 01:24:12;;;;;;;10.13;3.05;;;;;5.40;97793.00;;;;5054487;28;20064;-59
2023/04/14 01:26:41;;;;;;;6.15;2.90;;;;;5.30;97796.00;;;;5053079;28;20049;-59
2023/04/14 01:29:33;;;;;;;7.35;3.55;;;;;5.40;97813.00;;;;5054595;28;20051;-59
2023/04/14 01:32:10;;;;;;;8.43;2.78;;;;;5.30;97804.00;;;;5053279;28;20040;-59
2023/04/14 01:34:51;;;;;;;5.75;2.75;;;;;5.20;97804.00;;;;5054768;28;20041;-63
2023/04/14 01:37:30;;;;;;;8.18;3.78;;;;;5.30;97801.00;;;;5055805;28;20048;-60
2023/04/14 01:40:11;;;;;;;9.05;3.28;;;;;5.40;97805.00;;;;5053690;28;20045;-60
2023/04/14 01:42:43;;;;;;;8.05;2.60;;;;;5.20;97801.00;;;;5054013;28;20045;-60
2023/04/14 01:45:16;;;;;;;7.88;2.63;;;;;5.00;97797.00;;;;5053401;28;20143;-60
2023/04/14 01:47:44;;;;;;;8.23;3.33;;;;;4.90;97805.00;;;;5054526;28;20129;-59
2023/04/14 01:50:12;;;;;;;6.05;2.70;;;;;4.70;97807.00;;;;5052719;28;20421;-59
2023/04/14 01:52:41;;;;;;;12.50;3.25;;;;;4.70;97812.00;;;;5053273;28;20071;-58
2023/04/14 01:55:09;;;;;;;6.60;2.58;;;;;4.80;97811.00;;;;5054191;28;20485;-58
2023/04/14 01:57:41;;;;;;;6.60;2.47;;;;;4.80;97808.00;;;;5052827;28;20056;-59
2023/04/14 02:00:10;;;;;;;9.02;3.00;;;;;4.80;97811.00;;;;5053097;28;20414;-58
2023/04/14 02:02:45;;;;;;;6.95;3.05;;;;;4.80;97812.00;;;;5055012;28;20095;-58
2023/04/14 02:05:13;;;;;;;6.60;3.35;;;;;4.90;97815.00;;;;5053086;28;20045;-58
2023/04/14 02:07:43;;;;;;;12.65;3.28;;;;;5.00;97818.00;;;;5052908;28;20053;-59
2023/04/14 02:10:10;;;;;;;9.20;3.05;;;;;5.10;97821.00;;;;5052745;28;20049;-59
2023/04/14 02:12:42;;;;;;;10.75;4.05;;;;;5.10;97824.00;;;;5053877;28;20049;-59
2023/04/14 02:15:12;;;;;;;6.25;3.08;;;;;5.10;97821.00;;;;5052959;28;20068;-59
2023/04/14 02:17:40;;;;;;;7.35;3.67;;;;;5.20;97831.00;;;;5053750;28;20410;-59
2023/04/14 02:20:12;;;;;;;12.00;4.00;;;;;5.20;97819.00;;;;5053545;28;20055;-59
2023/04/14 02:22:40;;;;;;;6.78;3.30;;;;;5.20;97819.00;;;;5052613;28;20530;-58
2023/04/14 02:25:07;;;;;;;5.60;3.35;;;;;5.30;97812.00;;;;5053484;28;20048;-57
2023/04/14 02:27:55;;;;;;;7.70;3.55;;;;;5.30;97810.00;;;;5053650;28;20103;-58
2023/04/14 02:30:31;;;;;;;11.73;4.40;;;;;5.20;97817.00;;;;5053553;28;20397;-57
2023/04/14 02:33:08;;;;;;;9.65;3.85;;;;;4.90;97817.00;;;;5051740;28;20498;-57
2023/04/14 02:35:51;;;;;;;5.88;3.50;;;;;4.60;97818.00;;;;5053156;28;20461;-58
2023/04/14 02:38:27;;;;;;;12.80;3.30;;;;;4.40;97819.00;;;;5053220;28;20049;-57
2023/04/14 02:40:54;;;;;;;8.55;3.15;;;;;4.30;97831.00;;;;5053188;28;20041;-57
2023/04/14 02:43:29;;;;;;;9.80;3.47;;;;;4.30;97828.00;;;;5053183;28;20048;-57
2023/04/14 02:46:01;;;;;;;9.38;3.17;;;;;4.30;97827.00;;;;5051723;28;20041;-59
2023/04/14 02:48:33;;;;;;;7.57;2.88;;;;;4.20;97835.00;;;;5051615;28;20053;-60
2023/04/14 02:51:04;;;;;;;6.13;2.78;;;;;4.30;97840.00;;;;5051844;28;20068;-59
2023/04/14 02:53:32;;;;;;;10.82;2.90;;;;;4.20;97837.00;;;;5051794;28;20135;-57
2023/04/14 02:56:11;;;;;;;8.68;3.20;;;;;4.20;97836.00;;;;5051993;28;20059;-57
2023/04/14 02:58:42;;;;;;;7.95;3.00;;;;;4.20;97842.00;;;;5051145;28;20502;-58
2023/04/14 03:01:09;;;;;;;9.20;3.13;;;;;4.00;97836.00;;;;5051052;28;20041;-57
2023/04/14 03:03:37;;;;;;;8.88;3.05;;;;;3.90;97843.00;;;;5050601;28;20140;-57
2023/04/14 03:06:07;;;;;;;4.90;2.63;;;;;3.90;97841.00;;;;5051197;28;20049;-57
2023/04/14 03:08:36;;;;;;;7.55;3.35;;;;;3.80;97833.00;;;;5034361;28;20049;-58
2023/04/14 03:11:04;;;;;;;6.95;2.58;;;;;3.80;97838.00;;;;5050981;28;20041;-58
2023/04/14 03:13:33;;;;;;;6.90;2.72;;;;;3.80;97841.00;;;;5051029;28;20440;-57
2023/04/14 03:16:02;;;;;;;6.65;3.00;;;;;3.80;97829.00;;;;5050869;28;20047;-59
2023/04/14 03:18:31;;;;;;;7.85;2.90;;;;;3.90;97839.00;;;;5050608;28;20049;-60
2023/04/14 03:20:59;;;;;;;10.48;3.13;;;;;3.90;97829.00;;;;5052091;28;20111;-57
2023/04/14 03:23:27;;;;;;;6.82;2.75;;;;;4.00;97831.00;;;;5050836;28;20140;-57
2023/04/14 03:26:00;;;;;;;6.90;3.45;;;;;4.00;97828.00;;;;5052443;28;20477;-58
2023/04/14 03:28:29;;;;;;;5.10;2.78;;;;;4.20;97840.00;;;;5050810;28;20132;-58
2023/04/14 03:31:02;;;;;;;11.45;3.42;;;;;4.30;97842.00;;;;5050768;28;20076;-57
2023/04/14 03:33:39;;;;;;;6.60;3.20;;;;;4.20;97830.00;;;;5050715;28;20080;-57
2023/04/14 03:36:11;;;;;;;6.40;2.70;;;;;4.20;97831.00;;;;5050770;28;20045;-57
2023/04/14 03:38:40;;;;;;;4.95;2.17;;;;;4.10;97838.00;;;;5050575;28;20103;-56
2023/04/14 03:41:08;;;;;;;7.80;2.55;;;;;3.90;97840.00;;;;5050580;28;20048;-58
2023/04/14 03:43:37;;;;;;;6.90;2.40;;;;;3.80;97836.00;;;;5050635;28;20057;-57
2023/04/14 03:46:07;;;;;;;7.05;2.40;;;;;3.90;97834.00;;;;5050690;28;20051;-56
2023/04/14 03:48:41;;;;;;;6.82;2.75;;;;;3.80;97828.00;;;;5050488;28;20417;-57
2023/04/14 03:51:12;;;;;;;8.63;2.60;;;;;3.80;97836.00;;;;5050618;28;20091;-56
2023/04/14 03:53:41;;;;;;;9.40;2.45;;;;;3.80;97838.00;;;;5050502;28;20437;-58
2023/04/14 03:56:12;;;;;;;8.43;2.88;;;;;3.80;97839.00;;;;5051734;28;20048;-58
2023/04/14 03:58:42;;;;;;;5.85;3.03;;;;;3.80;97829.00;;;;5050489;28;20072;-57
2023/04/14 04:01:10;;;;;;;6.80;2.67;;;;;3.70;97836.00;;;;5051506;28;20091;-56
2023/04/14 04:03:38;;;;;;;7.57;2.85;;;;;3.70;97834.00;;;;5050580;28;20045;-57
2023/04/14 04:06:06;;;;;;;6.40;2.50;;;;;3.70;97839.00;;;;5051818;28;20086;-58
2023/04/14 04:08:35;;;;;;;5.03;2.83;;;;;3.60;97842.00;;;;5050180;28;20091;-57
2023/04/14 04:11:05;;;;;;;9.30;2.55;;;;;3.50;97836.00;;;;5050493;28;20079;-57
2023/04/14 04:13:35;;;;;;;7.00;2.70;;;;;3.40;97836.00;;;;5035563;28;20425;-60
2023/04/14 04:16:05;;;;;;;10.95;3.33;;;;;3.40;97842.00;;;;5054477;28;20564;-59
2023/04/14 04:18:36;;;;;;;5.60;2.47;;;;;3.50;97841.00;;;;5054169;28;20049;-58
2023/04/14 04:21:05;;;;;;;8.30;3.10;;;;;3.50;97847.00;;;;5054499;28;20094;-57
2023/04/14 04:23:33;;;;;;;6.40;3.42;;;;;3.60;97844.00;;;;5054324;28;20052;-57
2023/04/14 04:26:00;;;;;;;8.60;3.17;;;;;3.60;97844.00;;;;5054219;28;20064;-58
2023/04/14 04:28:35;;;;;;;6.45;2.88;;;;;3.50;97844.00;;;;5054051;28;20048;-58
2023/04/14 04:31:03;;;;;;;7.40;3.38;;;;;3.40;97844.00;;;;5037618;28;20045;-57
2023/04/14 04:33:30;;;;;;;4.90;2.40;;;;;3.40;97844.00;;;;5054350;28;20044;-57
2023/04/14 04:35:59;;;;;;;4.97;2.60;;;;;3.20;97844.00;;;;5054451;28;20041;-57
2023/04/14 04:38:32;;;;;;;10.55;4.18;;;;;3.30;97851.00;;;;5053848;28;20048;-57
2023/04/14 04:40:59;;;;;;;6.20;3.08;;;;;3.40;97847.00;;;;5053869;28;20045;-58
2023/04/14 04:43:27;;;;;;;8.93;3.35;;;;;3.50;97842.00;;;;5054078;28;20049;-58
2023/04/14 04:46:20;;;;;;;5.45;2.78;;;;;3.70;97847.00;;;;5055333;28;20033;-56
2023/04/14 04:48:52;;;;;;;8.88;3.80;;;;;3.70;97847.00;;;;5053836;28;20540;-59
2023/04/14 04:51:19;;;;;;;9.38;4.05;;;;;3.80;97852.00;;;;5053794;28;20049;-57
2023/04/14 04:53:45;;;;;;;10.77;4.05;;;;;3.90;97860.00;;;;5054193;28;20041;-57
2023/04/14 04:56:12;;;;;;;8.25;3.13;;;;;4.00;97859.00;;;;5053781;28;20041;-57
2023/04/14 04:58:38;;;;;;;8.68;3.53;;;;;3.80;97855.00;;;;5053558;28;20052;-57
2023/04/14 05:01:09;;;;;;;12.95;3.83;;;;;3.70;97861.00;;;;5054911;28;20450;-56
2023/04/14 05:03:36;;;;;;;9.27;3.08;;;;;3.70;97858.00;;;;5053783;28;20059;-60
2023/04/14 05:06:03;;;;;;;10.40;4.30;;;;;3.70;97859.00;;;;5054703;28;20037;-60
2023/04/14 05:08:29;;;;;;;13.95;4.25;;;;;3.70;97863.00;;;;5054338;28;20045;-59
2023/04/14 05:10:56;;;;;;;10.35;4.15;;;;;3.90;97871.00;;;;5054463;28;20044;-60
2023/04/14 05:13:23;;;;;;;12.05;3.75;;;;;4.10;97869.00;;;;5054724;28;20045;-61
2023/04/14 05:15:50;;;;;;;5.78;3.70;;;;;4.20;97870.00;;;;5054460;28;20493;-60
2023/04/14 05:18:17;;;;;;;6.07;3.80;;;;;4.20;97869.00;;;;5054492;28;20052;-60
2023/04/14 05:20:43;;;;;;;8.32;3.92;;;;;4.30;97881.00;;;;5054251;28;20102;-61
2023/04/14 05:23:10;;;;;;;7.38;3.35;;;;;4.40;97880.00;;;;5054375;28;20494;-59
2023/04/14 05:25:36;;;;;;;7.40;3.58;;;;;4.40;97877.00;;;;5053795;28;20106;-64
2023/04/14 05:28:03;;;;;;;8.85;3.63;;;;;4.40;97876.00;;;;5054383;28;20464;-61
2023/04/14 05:30:29;;;;;;;9.00;3.40;;;;;4.40;97869.00;;;;5054128;28;20049;-60
2023/04/14 05:32:56;;;;;;;9.82;3.83;;;;;4.40;97874.00;;;;5054276;28;20115;-58
2023/04/14 05:35:24;;;;;;;14.25;3.35;;;;;4.50;97868.00;;;;5054347;28;20452;-58
2023/04/14 05:37:50;;;;;;;13.23;3.55;;;;;4.50;97870.00;;;;5054984;28;20052;-58
2023/04/14 05:40:18;;;;;;;9.55;3.63;;;;;4.60;97869.00;;;;5055579;28;20045;-59
2023/04/14 05:42:45;;;;;;;9.52;3.92;;;;;4.70;97871.00;;;;5055363;28;20056;-58
2023/04/14 05:45:11;;;;;;;10.75;3.88;;;;;4.70;97871.00;;;;5055044;28;20037;-59
2023/04/14 05:47:38;;;;;;;10.70;3.63;;;;;4.70;97876.00;;;;5054703;28;20044;-58
2023/04/14 05:50:06;;;;;;;8.43;3.80;;;;;4.70;97872.00;;;;5053267;28;20049;-59
2023/04/14 05:52:33;;;;;;;14.02;5.95;;;;;4.80;97877.00;;;;5054402;28;20080;-59
2023/04/14 05:54:59;;;;;;;13.52;5.68;;;;;4.70;97877.00;;;;5054105;28;20094;-59
2023/04/14 05:57:26;;;;;;;8.93;5.20;;;;;4.60;97875.00;;;;5052645;28;20588;-59
2023/04/14 05:59:52;;;;;;;10.68;5.18;;;;;4.60;97882.00;;;;5053705;28;20098;-60
2023/04/14 06:02:20;;;;;;;9.40;4.70;;;;;4.60;97873.00;;;;5053893;28;20099;-61
2023/04/14 06:04:47;;;;;;;11.02;5.57;;;;;4.60;97883.00;;;;5053796;28;20045;-62
2023/04/14 06:07:14;;;;;;;13.23;4.90;;;;;4.70;97881.00;;;;5053725;28;20401;-60
2023/04/14 06:09:45;;;;;;;10.25;5.22;;;;;4.80;97875.00;;;;5053652;28;20445;-60
2023/04/14 06:12:12;;;;;;;13.73;4.85;;;;;5.10;97879.00;;;;5053422;28;20049;-59
2023/04/14 06:14:39;;;;;;;8.18;4.40;;;;;5.10;97877.00;;;;5052228;28;20041;-60
2023/04/14 06:17:06;;;;;;;6.55;3.78;;;;;5.10;97890.00;;;;5053463;28;20414;-60
2023/04/14 06:19:32;;;;;;;9.88;4.15;;;;;5.30;97881.00;;;;5053159;28;20123;-60
2023/04/14 06:21:59;;;;;;;10.88;4.15;;;;;5.40;97888.00;;;;5052037;28;20456;-60
2023/04/14 06:24:25;;;;;;;8.30;3.92;;;;;5.50;97882.00;;;;5053173;28;20094;-60
2023/04/14 06:26:52;;;;;;;11.57;4.07;;;;;5.60;97874.00;;;;5053000;28;20227;-60
2023/04/14 06:29:18;;;;;;;9.75;4.00;;;;;5.60;97868.00;;;;5053055;28;20445;-60
2023/04/14 06:31:45;;;;;;;10.73;4.32;;;;;5.60;97877.00;;;;5051952;28;20068;-60
2023/04/14 06:34:12;;;;;;;8.57;3.95;;;;;5.70;97867.00;;;;5053147;28;20053;-58
2023/04/14 06:36:38;;;;;;;8.98;4.38;;;;;5.80;97861.00;;;;5051773;28;20449;-59
2023/04/14 06:39:05;;;;;;;8.75;4.32;;;;;6.00;97861.00;;;;5052739;28;20049;-57
2023/04/14 06:41:32;;;;;;;11.77;4.25;;;;;6.00;97856.00;;;;5052656;28;20052;-57
2023/04/14 06:44:02;;;;;;;11.13;4.05;;;;;6.20;97863.00;;;;5051834;28;20741;-57
2023/04/14 06:46:29;;;;;;;12.00;5.20;;;;;6.30;97866.00;;;;5052720;28;20052;-58
2023/04/14 06:48:56;;;;;;;11.85;5.22;;;;;6.40;97859.00;;;;5052354;28;20047;-57
2023/04/14 06:51:22;;;;;;;12.02;4.45;;;;;6.50;97865.00;;;;5052695;28;20094;-58
2023/04/14 06:53:49;;;;;;;12.45;4.18;;;;;6.60;97860.00;;;;5051344;28;20049;-59
2023/04/14 06:56:15;;;;;;;6.35;3.80;;;;;6.60;97862.00;;;;5052344;28;20547;-58
2023/04/14 06:58:42;;;;;;;9.00;3.40;;;;;6.70;97859.00;;;;5052314;28;20045;-58
2023/04/14 07:01:08;;;;;;;13.23;4.95;;;;;6.90;97858.00;;;;5052480;28;20041;-58
2023/04/14 07:03:36;;;;;;;10.48;4.78;;;;;7.00;97853.00;;;;5052622;28;20045;-58
2023/04/14 07:06:04;;;;;;;18.13;5.28;;;;;7.20;97861.00;;;;5051288;28;20056;-57
2023/04/14 07:08:31;;;;;;;10.50;4.50;;;;;7.30;97863.00;;;;5052169;28;20049;-57
2023/04/14 07:11:00;;;;;;;11.98;4.95;;;;;7.40;97856.00;;;;5052303;28;20044;-58
2023/04/14 07:13:27;;;;;;;12.10;4.97;;;;;7.40;97862.00;;;;5034688;28;20139;-57
2023/04/14 07:15:54;;;;;;;13.95;6.85;;;;;7.50;97860.00;;;;5052501;28;20098;-58
2023/04/14 07:18:21;;;;;;;12.25;6.60;;;;;7.70;97862.00;;;;5052148;28;20416;-58
2023/04/14 07:20:53;;;;;;;12.80;6.57;;;;;7.80;97857.00;;;;5051441;28;20049;-57
2023/04/14 07:23:21;;;;;;;14.10;6.53;;;;;8.00;97856.00;;;;5052359;28;20033;-57
2023/04/14 07:26:06;;;;;;;10.40;5.65;;;;;8.10;97848.00;;;;5051083;28;20080;-58
2023/04/14 07:28:33;;;;;;;9.68;4.03;;;;;8.20;97860.00;;;;5051122;28;20037;-57
2023/04/14 07:31:07;;;;;;;9.32;4.22;;;;;8.50;97865.00;;;;5050954;28;20087;-57
2023/04/14 07:33:34;;;;;;;9.15;3.85;;;;;8.60;97850.00;;;;5052320;28;20060;-58
2023/04/14 07:36:03;;;;;;;5.38;2.90;;;;;8.70;97855.00;;;;5052528;28;20041;-57
2023/04/14 07:38:31;;;;;;;9.80;3.92;;;;;8.80;97851.00;;;;5050833;28;20578;-58
2023/04/14 07:41:01;;;;;;;10.23;3.92;;;;;8.90;97847.00;;;;5052122;28;20071;-56
2023/04/14 07:43:33;;;;;;;7.85;3.30;;;;;9.00;97847.00;;;;5051087;28;20049;-58
2023/04/14 07:46:05;;;;;;;12.32;4.10;;;;;9.10;97844.00;;;;5052256;28;20166;-57
2023/04/14 07:48:33;;;;;;;9.50;3.65;;;;;9.20;97838.00;;;;5034585;28;20446;-56
2023/04/14 07:51:00;;;;;;;10.20;3.67;;;;;9.40;97851.00;;;;5052617;28;20483;-59
2023/04/14 07:53:27;;;;;;;9.57;4.00;;;;;9.50;97847.00;;;;5051924;28;20040;-57
2023/04/14 07:55:54;;;;;;;10.52;3.03;;;;;9.60;97849.00;;;;5051650;28;20068;-56
2023/04/14 07:58:20;;;;;;;12.48;3.47;;;;;9.60;97850.00;;;;5050553;28;20048;-57
2023/04/14 08:00:51;;;;;;;7.82;3.25;;;;;9.70;97843.00;;;;5051463;28;20053;-58
2023/04/14 08:03:17;;;;;;;6.57;2.90;;;;;9.80;97846.00;;;;5052046;28;20041;-56
2023/04/14 08:05:44;;;;;;;15.95;8.38;;;;;9.90;97849.00;;;;5051913;28;20033;-56
2023/04/14 08:08:12;;;;;;;6.75;2.38;;;;;10.00;97847.00;;;;5051814;28;20383;-58
2023/04/14 08:10:39;;;;;;;8.30;2.67;;;;;10.20;97844.00;;;;5051361;28;20089;-56
2023/04/14 08:13:06;;;;;;;8.07;2.90;;;;;10.30;97844.00;;;;5051569;28;20052;-58
2023/04/14 08:15:32;;;;;;;9.88;2.60;;;;;10.40;97845.00;;;;5050240;28;20045;-58
2023/04/14 08:17:58;;;;;;;5.75;2.38;;;;;10.50;97845.00;;;;5050375;28;20056;-55
2023/04/14 08:20:25;;;;;;;11.77;2.33;;;;;10.60;97846.00;;;;5051498;28;20520;-59
2023/04/14 08:22:52;;;;;;;7.78;2.65;;;;;10.60;97847.00;;;;5051644;28;20087;-58
2023/04/14 08:25:19;;;;;;;5.13;2.15;;;;;10.70;97835.00;;;;5050190;28;20047;-57
2023/04/14 08:27:45;;;;;;;8.30;2.03;;;;;10.70;97839.00;;;;5051311;28;20045;-57
2023/04/14 08:30:12;;;;;;;3.72;2.17;;;;;10.80;97833.00;;;;5033486;28;20056;-59
2023/04/14 08:32:38;;;;;;;6.05;1.77;;;;;10.90;97840.00;;;;5051367;28;20045;-58
2023/04/14 08:35:05;;;;;;;3.88;1.50;;;;;11.00;97840.00;;;;5051447;28;20140;-57
2023/04/14 08:37:52;;;;;;;6.10;2.50;;;;;11.10;97844.00;;;;5051613;28;20681;-57
2023/04/14 08:40:21;;;;;;;8.02;1.85;;;;;11.20;97844.00;;;;5050940;28;20417;-58
2023/04/14 08:42:47;;;;;;;5.18;2.00;;;;;11.40;97843.00;;;;5050165;28;20052;-56
2023/04/14 08:45:14;;;;;;;4.28;2.00;;;;;11.40;97842.00;;;;5051315;28;20045;-57
2023/04/14 08:47:43;;;;;;;5.72;1.80;;;;;11.40;97830.00;;;;5051356;28;20493;-59
2023/04/14 08:50:16;;;;;;;4.78;2.08;;;;;11.50;97844.00;;;;5050972;28;20490;-57
2023/04/14 08:52:45;;;;;;;4.50;1.88;;;;;11.60;97840.00;;;;5051382;28;20045;-59
2023/04/14 08:55:14;;;;;;;4.38;1.50;;;;;11.80;97840.00;;;;5049950;28;20078;-58
2023/04/14 08:57:42;;;;;;;6.30;1.85;;;;;11.90;97851.00;;;;5051456;28;20052;-60
2023/04/14 09:00:10;;;;;;;4.63;1.67;;;;;11.90;97840.00;;;;5051704;28;20094;-59
2023/04/14 09:02:38;;;;;;;5.07;1.88;;;;;12.00;97843.00;;;;5054610;28;20102;-59
2023/04/14 09:05:06;;;;;;;4.05;1.70;;;;;12.00;97840.00;;;;5054730;28;20418;-59
2023/04/14 09:07:33;;;;;;;5.78;1.60;;;;;12.10;97844.00;;;;5053685;28;20049;-58
2023/04/14 09:10:00;;;;;;;4.80;1.60;;;;;12.20;97831.00;;;;5054402;28;20482;-59
2023/04/14 09:12:27;;;;;;;3.88;1.50;;;;;12.10;97828.00;;;;5054652;28;20045;-57
2023/04/14 09:14:57;;;;;;;4.90;1.60;;;;;12.00;97830.00;;;;5054965;28;20564;-57
2023/04/14 09:17:27;;;;;;;5.40;1.80;;;;;12.10;97836.00;;;;5054589;28;20091;-59
2023/04/14 09:19:54;;;;;;;7.45;2.10;;;;;12.30;97831.00;;;;5054393;28;20070;-57
2023/04/14 09:22:41;;;;;;;4.38;1.30;;;;;12.50;97832.00;;;;5054514;28;20128;-57
2023/04/14 09:25:09;;;;;;;3.97;1.70;;;;;12.60;97825.00;;;;5054539;28;20506;-59
2023/04/14 09:27:36;;;;;;;4.20;1.58;;;;;12.60;97832.00;;;;5053050;28;20040;-58
2023/04/14 09:30:02;;;;;;;5.47;1.70;;;;;12.70;97827.00;;;;5054073;28;20140;-58
2023/04/14 09:32:29;;;;;;;4.65;1.67;;;;;12.70;97815.00;;;;5054294;28;20094;-57
2023/04/14 09:34:57;;;;;;;4.38;1.58;;;;;12.70;97811.00;;;;5053141;28;20083;-60
2023/04/14 09:37:24;;;;;;;3.45;1.50;;;;;12.90;97822.00;;;;5054474;28;20048;-60
2023/04/14 09:39:53;;;;;;;2.25;1.20;;;;;13.10;97821.00;;;;5054160;28;20533;-58
2023/04/14 09:42:36;;;;;;;5.38;1.73;;;;;13.20;97818.00;;;;5054127;28;20049;-61
2023/04/14 09:45:04;;;;;;;3.05;1.50;;;;;13.30;97816.00;;;;5054104;28;20099;-57
2023/04/14 09:47:31;;;;;;;5.65;2.00;;;;;13.40;97814.00;;;;5054070;28;20482;-58
2023/04/14 09:50:02;;;;;;;6.78;1.95;;;;;13.60;97812.00;;;;5053807;28;20124;-58
2023/04/14 09:52:43;;;;;;;2.22;1.38;;;;;13.70;97809.00;;;;5054508;28;20041;-57
2023/04/14 09:55:11;;;;;;;5.32;1.98;;;;;13.80;97805.00;;;;5055112;28;20045;-58
2023/04/14 09:57:42;;;;;;;5.80;1.30;;;;;14.00;97809.00;;;;5054333;28;20053;-59
2023/04/14 10:00:16;;;;;;;4.70;1.40;;;;;14.00;97805.00;;;;5053696;28;20048;-59
2023/04/14 10:02:51;;;;;;;4.07;1.85;;;;;14.10;97805.00;;;;5053768;28;20559;-59
2023/04/14 10:05:19;;;;;;;4.32;1.58;;;;;14.20;97812.00;;;;5052512;28;20045;-58
2023/04/14 10:07:46;;;;;;;4.13;1.67;;;;;14.30;97799.00;;;;5053748;28;20078;-57
2023/04/14 10:10:13;;;;;;;7.47;1.80;;;;;14.50;97797.00;;;;5055352;28;20039;-59
2023/04/14 10:12:42;;;;;;;6.65;2.35;;;;;14.60;97802.00;;;;5055172;28;20048;-57
2023/04/14 10:15:10;;;;;;;4.55;1.58;;;;;14.80;97794.00;;;;5056584;28;20037;-58
2023/04/14 10:17:41;;;;;;;3.63;1.75;;;;;14.90;97797.00;;;;5054407;28;20052;-57
2023/04/14 10:20:08;;;;;;;2.63;1.50;;;;;14.90;97798.00;;;;5055804;28;20508;-58
2023/04/14 10:22:35;;;;;;;4.35;1.52;;;;;14.70;97794.00;;;;5058926;28;20052;-57
2023/04/14 10:25:05;;;;;;;5.57;1.77;;;;;14.60;97792.00;;;;5057779;28;20041;-59
2023/04/14 10:27:33;;;;;;;5.35;1.92;;;;;14.60;97789.00;;;;5054816;28;20045;-58
2023/04/14 10:30:00;;;;;;;5.28;1.90;;;;;14.60;97779.00;;;;5056014;28;20067;-58
2023/04/14 10:32:32;;;;;;;5.45;1.67;;;;;14.70;97768.00;;;;5038005;28;20059;-59
2023/04/14 10:35:04;;;;;;;3.75;1.20;;;;;14.60;97765.00;;;;5055124;28;20540;-58
2023/04/14 10:37:32;;;;;;;5.35;1.50;;;;;14.80;97762.00;;;;5053910;28;20098;-58
2023/04/14 10:40:00;;;;;;;2.72;1.38;;;;;15.00;97758.00;;;;5053100;28;20078;-56
2023/04/14 10:42:31;;;;;;;5.53;1.65;;;;;15.20;97759.00;;;;5053037;28;20075;-58
2023/04/14 10:45:05;;;;;;;6.32;3.20;;;;;15.30;97755.00;;;;5053297;28;20052;-58
2023/04/14 10:47:34;;;;;;;;;;;;;15.20;97747.00;;;;5053619;28;20037;-59
2023/04/14 10:50:17;;;;;;;3.10;1.20;;;;;15.40;97754.00;;;;5052955;28;19967;-59
2023/04/14 10:52:54;;;;;;;12.07;7.15;;;;;15.70;97754.00;;;;5051860;28;20044;-59
2023/04/14 10:55:25;;;;;;;26.02;15.13;;;;;15.70;97755.00;;;;5052649;28;20041;-58
2023/04/14 10:58:02;;;;;;;3.88;1.90;;;;;15.70;97743.00;;;;5052555;28;20065;-58
2023/04/14 11:00:31;;;;;;;4.47;2.50;;;;;15.90;97745.00;;;;5052322;28;20041;-59
2023/04/14 11:03:09;;;;;;;3.05;1.48;;;;;15.90;97742.00;;;;5052623;28;20129;-58
2023/04/14 11:05:50;;;;;;;4.15;1.20;;;;;16.10;97749.00;;;;5052769;28;20040;-58
2023/04/14 11:08:32;;;;;;;6.03;1.35;;;;;16.30;97743.00;;;;5052458;28;20044;-57
2023/04/14 11:11:01;;;;;;;4.15;1.02;;;;;16.20;97751.00;;;;5052426;28;20041;-56
2023/04/14 11:13:29;;;;;;;1.90;1.10;;;;;16.00;97742.00;;;;5052461;28;20049;-57
2023/04/14 11:16:00;;;;;;;3.83;1.67;;;;;15.90;97744.00;;;;5052256;28;20040;-58
2023/04/14 11:18:31;;;;;;;5.22;1.67;;;;;16.00;97745.00;;;;5052358;28;20048;-56
2023/04/14 11:21:15;;;;;;;2.28;0.93;;;;;16.00;97740.00;;;;5052785;28;20060;-58
2023/04/14 11:23:42;;;;;;;3.90;1.58;;;;;15.90;97738.00;;;;5050656;28;20060;-59
2023/04/14 11:26:11;;;;;;;3.25;1.15;;;;;15.70;97732.00;;;;5051147;28;20515;-56
2023/04/14 11:28:40;;;;;;;3.05;1.30;;;;;15.60;97732.00;;;;5052038;28;20067;-57
2023/04/14 11:31:09;;;;;;;2.78;1.40;;;;;15.70;97732.00;;;;5052364;28;20503;-59
2023/04/14 11:33:37;;;;;;;3.63;1.30;;;;;15.80;97727.00;;;;5052413;28;20037;-57
2023/04/14 11:36:05;;;;;;;2.15;1.17;;;;;15.80;97722.00;;;;5050985;28;20052;-58
2023/04/14 11:38:34;;;;;;;1.67;1.00;;;;;16.00;97723.00;;;;5051946;28;20052;-58
2023/04/14 11:41:02;;;;;;;4.18;1.52;;;;;16.10;97717.00;;;;5050826;28;20056;-57
2023/04/14 11:43:29;;;;;;;2.97;1.20;;;;;16.10;97721.00;;;;5052064;28;20052;-58
2023/04/14 11:45:57;;;;;;;2.95;1.13;;;;;16.00;97712.00;;;;5050960;28;20112;-59
2023/04/14 11:48:26;;;;;;;2.58;1.08;;;;;16.20;97706.00;;;;5050632;28;20507;-58
2023/04/14 11:50:54;;;;;;;4.40;1.58;;;;;16.30;97707.00;;;;5051962;28;20045;-58
2023/04/14 11:53:21;;;;;;;2.00;1.25;;;;;16.30;97708.00;;;;5052203;28;20106;-58
2023/04/14 11:55:50;;;;;;;2.10;1.00;;;;;16.30;97704.00;;;;5052152;28;20044;-58
2023/04/14 11:58:25;;;;;;;3.95;1.20;;;;;16.30;97701.00;;;;5051908;28;20053;-58
2023/04/14 12:00:53;;;;;;;2.40;1.52;;;;;16.20;97706.00;;;;5051625;28;20116;-58
2023/04/14 12:03:26;;;;;;;3.40;1.17;;;;;16.30;97705.00;;;;5051999;28;20127;-58
2023/04/14 12:06:01;;;;;;;2.35;0.93;;;;;16.20;97692.00;;;;5050576;28;20053;-58
2023/04/14 12:08:29;;;;;;;4.00;1.67;;;;;15.90;97683.00;;;;5051809;28;20056;-59
2023/04/14 12:10:56;;;;;;;3.20;1.33;;;;;15.90;97687.00;;;;5050350;28;20045;-57
2023/04/14 12:13:23;;;;;;;5.13;2.40;;;;;15.70;97689.00;;;;5051951;28;20045;-58
2023/04/14 12:15:51;;;;;;;2.15;1.10;;;;;15.50;97685.00;;;;5051820;28;20044;-59
2023/04/14 12:18:18;;;;;;;5.15;1.30;;;;;15.40;97694.00;;;;5051883;28;20041;-59
2023/04/14 12:20:50;;;;;;;1.73;0.98;;;;;15.40;97679.00;;;;5051396;28;20040;-59
2023/04/14 12:23:16;;;;;;;1.92;0.98;;;;;15.50;97684.00;;;;5051572;28;20048;-58
2023/04/14 12:25:43;;;;;;;2.03;0.90;;;;;15.70;97674.00;;;;5051597;28;20053;-58
2023/04/14 12:28:16;;;;;;;5.45;1.30;;;;;15.80;97680.00;;;;5051631;28;20056;-59
2023/04/14 12:30:51;;;;;;;2.47;1.25;;;;;15.80;97674.00;;;;5050172;28;20057;-58
2023/04/14 12:33:21;;;;;;;3.30;1.30;;;;;15.80;97677.00;;;;5052045;28;20671;-56